sensor_id;sensor_type;location;lat;lon;timestamp;pressure;altitude;pressure_sealevel;temperature;humidity
57763;BME280;43592;42.524;12.052;2022-12-10T00:00:22;95449.28;;;12.26;100.00
57763;BME280;43592;42.524;12.052;2022-12-10T00:02:48;95451.56;;;12.24;100.00
57763;BME280;43592;42.524;12.052;2022-12-10T00:05:13;95452.31;;;12.24;100.00
57763;BME280;43592;42.524;12.052;2022-12-10T00:07:39;95432.03;;;12.23;100.00
57763;BME280;43592;42.524;12.052;2022-12-10T00:10:05;95419.38;;;12.20;100.00
57763;BME280;43592;42.524;12.052;2022-12-10T00:12:30;95422.78;;;12.17;100.00
57763;BME280;43592;42.524;12.052;2022-12-10T00:14:56;95421.25;;;12.16;100.00
57763;BME280;43592;42.524;12.052;2022-12-10T00:17:21;95418.97;;;12.15;100.00
57763;BME280;43592;42.524;12.052;2022-12-10T00:19:46;95418.97;;;12.15;100.00
57763;BME280;43592;42.524;12.052;2022-12-10T00:22:12;95416.66;;;12.13;100.00
57763;BME280;43592;42.524;12.052;2022-12-10T00:24:37;95412.44;;;12.12;100.00
57763;BME280;43592;42.524;12.052;2022-12-10T00:27:03;95411.28;;;12.13;100.00
57763;BME280;43592;42.524;12.052;2022-12-10T00:29:28;95412.44;;;12.12;100.00
57763;BME280;43592;42.524;12.052;2022-12-10T00:31:54;95403.25;;;12.13;100.00
57763;BME280;43592;42.524;12.052;2022-12-10T00:34:19;95394.03;;;12.14;100.00
57763;BME280;43592;42.524;12.052;2022-12-10T00:36:46;95394.81;;;12.15;100.00
57763;BME280;43592;42.524;12.052;2022-12-10T00:39:13;95392.16;;;12.15;100.00
57763;BME280;43592;42.524;12.052;2022-12-10T00:41:39;95391.38;;;12.18;100.00
57763;BME280;43592;42.524;12.052;2022-12-10T00:44:05;95391.00;;;12.19;100.00
57763;BME280;43592;42.524;12.052;2022-12-10T00:46:31;95381.81;;;12.20;100.00
57763;BME280;43592;42.524;12.052;2022-12-10T00:48:57;95386.38;;;12.20;100.00
57763;BME280;43592;42.524;12.052;2022-12-10T00:51:23;95374.13;;;12.19;100.00
57763;BME280;43592;42.524;12.052;2022-12-10T00:53:49;95381.03;;;12.16;100.00
57763;BME280;43592;42.524;12.052;2022-12-10T00:56:16;95384.88;;;12.15;100.00
57763;BME280;43592;42.524;12.052;2022-12-10T00:58:42;95384.47;;;12.13;100.00
57763;BME280;43592;42.524;12.052;2022-12-10T01:01:18;95382.94;;;12.12;100.00
57763;BME280;43592;42.524;12.052;2022-12-10T01:03:45;95382.94;;;12.12;100.00
57763;BME280;43592;42.524;12.052;2022-12-10T01:06:15;95390.22;;;12.15;100.00
57763;BME280;43592;42.524;12.052;2022-12-10T01:08:41;95391.00;;;12.19;100.00
57763;BME280;43592;42.524;12.052;2022-12-10T01:11:08;95386.03;;;12.21;100.00
57763;BME280;43592;42.524;12.052;2022-12-10T01:13:34;95382.22;;;12.26;100.00
57763;BME280;43592;42.524;12.052;2022-12-10T01:16:00;95380.28;;;12.26;100.00
57763;BME280;43592;42.524;12.052;2022-12-10T01:18:26;95379.53;;;12.26;100.00
57763;BME280;43592;42.524;12.052;2022-12-10T01:20:52;95385.66;;;12.26;100.00
57763;BME280;43592;42.524;12.052;2022-12-10T01:23:17;95378.75;;;12.25;100.00
57763;BME280;43592;42.524;12.052;2022-12-10T01:25:43;95374.94;;;12.26;100.00
57763;BME280;43592;42.524;12.052;2022-12-10T01:28:08;95379.91;;;12.28;100.00
57763;BME280;43592;42.524;12.052;2022-12-10T01:30:34;95373.00;;;12.30;100.00
57763;BME280;43592;42.524;12.052;2022-12-10T01:32:59;95371.88;;;12.31;100.00
57763;BME280;43592;42.524;12.052;2022-12-10T01:35:24;95363.84;;;12.31;100.00
57763;BME280;43592;42.524;12.052;2022-12-10T01:37:50;95365.34;;;12.32;100.00
57763;BME280;43592;42.524;12.052;2022-12-10T01:40:15;95363.84;;;12.31;100.00
57763;BME280;43592;42.524;12.052;2022-12-10T01:42:41;95356.91;;;12.30;100.00
57763;BME280;43592;42.524;12.052;2022-12-10T01:45:08;95360.75;;;12.29;100.00
57763;BME280;43592;42.524;12.052;2022-12-10T01:47:34;95358.47;;;12.31;100.00
57763;BME280;43592;42.524;12.052;2022-12-10T01:50:00;95343.91;;;12.32;100.00
57763;BME280;43592;42.524;12.052;2022-12-10T01:52:26;95346.97;;;12.34;100.00
57763;BME280;43592;42.524;12.052;2022-12-10T01:54:51;95333.16;;;12.36;100.00
57763;BME280;43592;42.524;12.052;2022-12-10T01:57:19;95328.19;;;12.34;100.00
57763;BME280;43592;42.524;12.052;2022-12-10T01:59:46;95324.72;;;12.34;100.00
57763;BME280;43592;42.524;12.052;2022-12-10T02:02:16;95316.69;;;12.34;100.00
57763;BME280;43592;42.524;12.052;2022-12-10T02:10:05;95308.66;;;12.38;100.00
57763;BME280;43592;42.524;12.052;2022-12-10T02:12:43;95292.56;;;12.38;100.00
57763;BME280;43592;42.524;12.052;2022-12-10T02:15:13;95290.63;;;12.38;100.00
57763;BME280;43592;42.524;12.052;2022-12-10T02:17:42;95297.53;;;12.39;100.00
57763;BME280;43592;42.524;12.052;2022-12-10T02:22:35;95288.72;;;12.39;100.00
57763;BME280;43592;42.524;12.052;2022-12-10T02:25:04;95284.09;;;12.39;100.00
57763;BME280;43592;42.524;12.052;2022-12-10T02:27:35;95276.81;;;12.40;100.00
57763;BME280;43592;42.524;12.052;2022-12-10T02:30:04;95281.44;;;12.39;100.00
57763;BME280;43592;42.524;12.052;2022-12-10T02:32:35;95275.31;;;12.39;100.00
57763;BME280;43592;42.524;12.052;2022-12-10T02:35:03;95273.38;;;12.39;100.00
57763;BME280;43592;42.524;12.052;2022-12-10T02:37:31;95265.34;;;12.39;100.00
57763;BME280;43592;42.524;12.052;2022-12-10T02:39:59;95262.66;;;12.39;100.00
57763;BME280;43592;42.524;12.052;2022-12-10T02:42:27;95258.03;;;12.40;100.00
57763;BME280;43592;42.524;12.052;2022-12-10T02:44:53;95252.69;;;12.40;100.00
57763;BME280;43592;42.524;12.052;2022-12-10T02:47:19;95246.56;;;12.39;100.00
57763;BME280;43592;42.524;12.052;2022-12-10T02:49:45;95238.13;;;12.41;100.00
57763;BME280;43592;42.524;12.052;2022-12-10T02:52:13;95229.69;;;12.42;100.00
57763;BME280;43592;42.524;12.052;2022-12-10T02:54:43;95235.84;;;12.43;100.00
57763;BME280;43592;42.524;12.052;2022-12-10T03:05:03;95216.66;;;12.44;100.00
57763;BME280;43592;42.524;12.052;2022-12-10T03:07:37;95207.09;;;12.43;100.00
57763;BME280;43592;42.524;12.052;2022-12-10T03:10:28;95194.81;;;12.42;100.00
57763;BME280;43592;42.524;12.052;2022-12-10T03:12:52;95192.91;;;12.43;100.00
57763;BME280;43592;42.524;12.052;2022-12-10T03:15:20;95207.47;;;12.42;100.00
57763;BME280;43592;42.524;12.052;2022-12-10T03:17:46;95195.59;;;12.43;100.00
57763;BME280;43592;42.524;12.052;2022-12-10T03:20:13;95185.25;;;12.41;100.00
57763;BME280;43592;42.524;12.052;2022-12-10T03:22:40;95176.44;;;12.41;100.00
57763;BME280;43592;42.524;12.052;2022-12-10T03:25:08;95184.47;;;12.41;100.00
57763;BME280;43592;42.524;12.052;2022-12-10T03:27:36;95172.19;;;12.40;100.00
57763;BME280;43592;42.524;12.052;2022-12-10T03:30:04;95180.25;;;12.40;100.00
57763;BME280;43592;42.524;12.052;2022-12-10T03:32:30;95184.09;;;12.39;100.00
57763;BME280;43592;42.524;12.052;2022-12-10T03:34:56;95182.94;;;12.40;100.00
57763;BME280;43592;42.524;12.052;2022-12-10T03:37:23;95168.00;;;12.39;100.00
57763;BME280;43592;42.524;12.052;2022-12-10T03:39:49;95161.09;;;12.38;100.00
57763;BME280;43592;42.524;12.052;2022-12-10T03:42:14;95155.34;;;12.35;100.00
57763;BME280;43592;42.524;12.052;2022-12-10T03:44:40;95148.47;;;12.34;100.00
57763;BME280;43592;42.524;12.052;2022-12-10T03:47:06;95147.69;;;12.34;100.00
57763;BME280;43592;42.524;12.052;2022-12-10T03:49:33;95140.03;;;12.32;100.00
57763;BME280;43592;42.524;12.052;2022-12-10T03:51:59;95137.34;;;12.32;100.00
57763;BME280;43592;42.524;12.052;2022-12-10T03:54:24;95132.38;;;12.31;100.00
57763;BME280;43592;42.524;12.052;2022-12-10T03:56:49;95124.31;;;12.31;100.00
57763;BME280;43592;42.524;12.052;2022-12-10T03:59:15;95114.75;;;12.30;100.00
57763;BME280;43592;42.524;12.052;2022-12-10T04:01:41;95102.88;;;12.27;100.00
57763;BME280;43592;42.524;12.052;2022-12-10T04:04:06;95089.84;;;12.29;100.00
57763;BME280;43592;42.524;12.052;2022-12-10T04:06:32;95089.84;;;12.29;100.00
57763;BME280;43592;42.524;12.052;2022-12-10T04:08:58;95078.72;;;12.34;100.00
57763;BME280;43592;42.524;12.052;2022-12-10T04:11:23;95077.19;;;12.37;100.00
57763;BME280;43592;42.524;12.052;2022-12-10T04:13:50;95070.25;;;12.40;100.00
57763;BME280;43592;42.524;12.052;2022-12-10T04:16:34;95076.00;;;12.42;100.00
57763;BME280;43592;42.524;12.052;2022-12-10T04:19:01;95072.56;;;12.41;100.00
57763;BME280;43592;42.524;12.052;2022-12-10T04:21:28;95084.06;;;12.42;100.00
57763;BME280;43592;42.524;12.052;2022-12-10T04:24:12;95085.97;;;12.41;100.00
57763;BME280;43592;42.524;12.052;2022-12-10T04:26:57;95062.22;;;12.40;100.00
57763;BME280;43592;42.524;12.052;2022-12-10T04:29:27;95075.63;;;12.36;100.00
57763;BME280;43592;42.524;12.052;2022-12-10T04:31:53;95093.69;;;12.32;100.00
57763;BME280;43592;42.524;12.052;2022-12-10T04:34:19;95095.97;;;12.30;100.00
57763;BME280;43592;42.524;12.052;2022-12-10T04:36:45;95098.66;;;12.26;100.00
57763;BME280;43592;42.524;12.052;2022-12-10T04:39:11;95096.00;;;12.26;100.00
57763;BME280;43592;42.524;12.052;2022-12-10T04:41:40;95116.66;;;12.29;100.00
57763;BME280;43592;42.524;12.052;2022-12-10T04:44:06;95118.19;;;12.30;100.00
57763;BME280;43592;42.524;12.052;2022-12-10T04:46:32;95115.13;;;12.28;100.00
57763;BME280;43592;42.524;12.052;2022-12-10T04:48:58;95122.81;;;12.26;100.00
57763;BME280;43592;42.524;12.052;2022-12-10T04:51:23;95120.50;;;12.25;100.00
57763;BME280;43592;42.524;12.052;2022-12-10T04:53:49;95109.78;;;12.25;100.00
57763;BME280;43592;42.524;12.052;2022-12-10T04:56:14;95109.00;;;12.24;100.00
57763;BME280;43592;42.524;12.052;2022-12-10T04:58:40;95115.91;;;12.25;100.00
57763;BME280;43592;42.524;12.052;2022-12-10T05:01:06;95100.97;;;12.24;100.00
57763;BME280;43592;42.524;12.052;2022-12-10T05:03:32;95108.25;;;12.24;100.00
57763;BME280;43592;42.524;12.052;2022-12-10T05:06:05;95103.25;;;12.22;100.00
57763;BME280;43592;42.524;12.052;2022-12-10T05:08:31;95100.22;;;12.20;100.00
57763;BME280;43592;42.524;12.052;2022-12-10T05:11:06;95101.75;;;12.18;100.00
57763;BME280;43592;42.524;12.052;2022-12-10T05:13:33;95107.50;;;12.16;100.00
57763;BME280;43592;42.524;12.052;2022-12-10T05:16:00;95108.25;;;12.17;100.00
57763;BME280;43592;42.524;12.052;2022-12-10T05:18:26;95116.69;;;12.15;100.00
57763;BME280;43592;42.524;12.052;2022-12-10T05:20:52;95119.38;;;12.15;100.00
57763;BME280;43592;42.524;12.052;2022-12-10T05:23:17;95117.47;;;12.16;100.00
57763;BME280;43592;42.524;12.052;2022-12-10T05:28:23;95117.06;;;12.13;100.00
57763;BME280;43592;42.524;12.052;2022-12-10T05:30:48;95114.38;;;12.13;100.00
57763;BME280;43592;42.524;12.052;2022-12-10T05:33:14;95118.22;;;12.12;100.00
57763;BME280;43592;42.524;12.052;2022-12-10T05:35:39;95120.91;;;12.12;100.00
57763;BME280;43592;42.524;12.052;2022-12-10T05:38:05;95115.53;;;12.12;100.00
57763;BME280;43592;42.524;12.052;2022-12-10T05:40:34;95113.63;;;12.13;100.00
57763;BME280;43592;42.524;12.052;2022-12-10T05:42:59;95116.31;;;12.13;100.00
57763;BME280;43592;42.524;12.052;2022-12-10T05:45:24;95117.81;;;12.14;100.00
57763;BME280;43592;42.524;12.052;2022-12-10T05:47:50;95109.44;;;12.12;100.00
57763;BME280;43592;42.524;12.052;2022-12-10T05:50:15;95109.78;;;12.10;100.00
57763;BME280;43592;42.524;12.052;2022-12-10T05:52:41;95107.88;;;12.07;100.00
57763;BME280;43592;42.524;12.052;2022-12-10T05:55:06;95105.22;;;12.04;100.00
57763;BME280;43592;42.524;12.052;2022-12-10T05:57:32;95086.44;;;11.97;100.00
57763;BME280;43592;42.524;12.052;2022-12-10T05:59:57;95099.88;;;11.93;100.00
57763;BME280;43592;42.524;12.052;2022-12-10T06:02:23;95107.53;;;11.87;100.00
57763;BME280;43592;42.524;12.052;2022-12-10T06:04:48;95113.63;;;11.84;100.00
57763;BME280;43592;42.524;12.052;2022-12-10T06:07:13;95127.78;;;11.81;100.00
57763;BME280;43592;42.524;12.052;2022-12-10T06:09:39;95117.09;;;11.78;100.00
57763;BME280;43592;42.524;12.052;2022-12-10T06:12:04;95121.28;;;11.75;100.00
57763;BME280;43592;42.524;12.052;2022-12-10T06:14:30;95119.75;;;11.71;100.00
57763;BME280;43592;42.524;12.052;2022-12-10T06:16:55;95113.63;;;11.66;100.00
57763;BME280;43592;42.524;12.052;2022-12-10T06:19:21;95125.50;;;11.62;100.00
57763;BME280;43592;42.524;12.052;2022-12-10T06:21:46;95123.19;;;11.57;100.00
57763;BME280;43592;42.524;12.052;2022-12-10T06:24:12;95120.09;;;11.55;100.00
57763;BME280;43592;42.524;12.052;2022-12-10T06:26:37;95127.78;;;11.53;100.00
57763;BME280;43592;42.524;12.052;2022-12-10T06:29:03;95125.09;;;11.49;100.00
57763;BME280;43592;42.524;12.052;2022-12-10T06:31:29;95127.00;;;11.49;100.00
57763;BME280;43592;42.524;12.052;2022-12-10T06:33:55;95125.84;;;11.46;100.00
57763;BME280;43592;42.524;12.052;2022-12-10T06:36:20;95128.16;;;11.44;100.00
57763;BME280;43592;42.524;12.052;2022-12-10T06:38:46;95122.78;;;11.40;100.00
57763;BME280;43592;42.524;12.052;2022-12-10T06:41:13;95128.13;;;11.40;100.00
57763;BME280;43592;42.524;12.052;2022-12-10T06:43:39;95129.28;;;11.36;100.00
57763;BME280;43592;42.524;12.052;2022-12-10T06:46:08;95121.63;;;11.34;100.00
57763;BME280;43592;42.524;12.052;2022-12-10T06:48:35;95115.50;;;11.30;100.00
57763;BME280;43592;42.524;12.052;2022-12-10T06:51:01;95117.78;;;11.28;100.00
57763;BME280;43592;42.524;12.052;2022-12-10T06:53:26;95122.75;;;11.26;100.00
57763;BME280;43592;42.524;12.052;2022-12-10T06:55:51;95125.81;;;11.24;100.00
57763;BME280;43592;42.524;12.052;2022-12-10T06:58:17;95110.13;;;11.23;100.00
57763;BME280;43592;42.524;12.052;2022-12-10T07:00:42;95104.00;;;11.22;100.00
57763;BME280;43592;42.524;12.052;2022-12-10T07:03:08;95119.31;;;11.22;100.00
57763;BME280;43592;42.524;12.052;2022-12-10T07:05:33;95112.81;;;11.19;100.00
57763;BME280;43592;42.524;12.052;2022-12-10T07:07:59;95113.56;;;11.20;100.00
57763;BME280;43592;42.524;12.052;2022-12-10T07:10:24;95109.72;;;11.17;100.00
57763;BME280;43592;42.524;12.052;2022-12-10T07:12:50;95112.81;;;11.16;100.00
57763;BME280;43592;42.524;12.052;2022-12-10T07:15:15;95105.13;;;11.14;100.00
57763;BME280;43592;42.524;12.052;2022-12-10T07:17:41;95108.22;;;11.13;100.00
57763;BME280;43592;42.524;12.052;2022-12-10T07:20:06;95107.41;;;11.12;100.00
57763;BME280;43592;42.524;12.052;2022-12-10T07:22:32;95104.38;;;11.10;100.00
57763;BME280;43592;42.524;12.052;2022-12-10T07:24:57;95108.97;;;11.10;100.00
57763;BME280;43592;42.524;12.052;2022-12-10T07:27:23;95111.66;;;11.10;100.00
57763;BME280;43592;42.524;12.052;2022-12-10T07:29:48;95108.56;;;11.11;100.00
57763;BME280;43592;42.524;12.052;2022-12-10T07:32:14;95100.19;;;11.13;100.00
57763;BME280;43592;42.524;12.052;2022-12-10T07:34:39;95098.25;;;11.13;100.00
57763;BME280;43592;42.524;12.052;2022-12-10T07:37:05;95092.16;;;11.13;100.00
57763;BME280;43592;42.524;12.052;2022-12-10T07:39:30;95089.84;;;11.15;100.00
57763;BME280;43592;42.524;12.052;2022-12-10T07:41:56;95082.59;;;11.15;100.00
57763;BME280;43592;42.524;12.052;2022-12-10T07:44:23;95083.72;;;11.18;100.00
57763;BME280;43592;42.524;12.052;2022-12-10T07:46:50;95082.59;;;11.19;100.00
57763;BME280;43592;42.524;12.052;2022-12-10T07:49:16;95077.22;;;11.19;100.00
57763;BME280;43592;42.524;12.052;2022-12-10T07:51:45;95083.34;;;11.19;100.00
57763;BME280;43592;42.524;12.052;2022-12-10T07:54:11;95081.06;;;11.21;100.00
57763;BME280;43592;42.524;12.052;2022-12-10T07:56:36;95079.16;;;11.22;100.00
57763;BME280;43592;42.524;12.052;2022-12-10T07:59:02;95082.97;;;11.24;100.00
57763;BME280;43592;42.524;12.052;2022-12-10T08:01:27;95081.81;;;11.26;100.00
57763;BME280;43592;42.524;12.052;2022-12-10T08:03:53;95090.63;;;11.26;100.00
57763;BME280;43592;42.524;12.052;2022-12-10T08:06:21;95088.72;;;11.27;100.00
57763;BME280;43592;42.524;12.052;2022-12-10T08:08:47;95095.22;;;11.26;100.00
57763;BME280;43592;42.524;12.052;2022-12-10T08:11:13;95083.75;;;11.25;100.00
57763;BME280;43592;42.524;12.052;2022-12-10T08:13:39;95075.72;;;11.25;100.00
57763;BME280;43592;42.524;12.052;2022-12-10T08:16:10;95081.06;;;11.25;100.00
57763;BME280;43592;42.524;12.052;2022-12-10T08:18:36;95077.22;;;11.22;100.00
57763;BME280;43592;42.524;12.052;2022-12-10T08:21:05;95070.34;;;11.21;100.00
57763;BME280;43592;42.524;12.052;2022-12-10T08:23:31;95061.16;;;11.19;100.00
57763;BME280;43592;42.524;12.052;2022-12-10T08:25:57;95060.00;;;11.16;100.00
57763;BME280;43592;42.524;12.052;2022-12-10T08:28:22;95056.94;;;11.14;100.00
57763;BME280;43592;42.524;12.052;2022-12-10T08:30:48;95043.16;;;11.09;100.00
57763;BME280;43592;42.524;12.052;2022-12-10T08:33:14;95036.66;;;11.06;100.00
57763;BME280;43592;42.524;12.052;2022-12-10T08:35:39;95042.41;;;11.08;100.00
57763;BME280;43592;42.524;12.052;2022-12-10T08:38:04;95038.56;;;11.09;100.00
57763;BME280;43592;42.524;12.052;2022-12-10T08:40:30;95055.44;;;11.10;100.00
57763;BME280;43592;42.524;12.052;2022-12-10T08:42:55;95044.31;;;11.08;100.00
57763;BME280;43592;42.524;12.052;2022-12-10T08:45:21;95041.25;;;11.06;100.00
57763;BME280;43592;42.524;12.052;2022-12-10T08:47:46;95035.50;;;11.04;100.00
57763;BME280;43592;42.524;12.052;2022-12-10T08:50:11;95037.03;;;11.01;100.00
57763;BME280;43592;42.524;12.052;2022-12-10T08:52:37;95032.84;;;10.93;100.00
57763;BME280;43592;42.524;12.052;2022-12-10T08:55:02;95021.72;;;10.94;100.00
57763;BME280;43592;42.524;12.052;2022-12-10T08:57:28;95023.66;;;10.94;100.00
57763;BME280;43592;42.524;12.052;2022-12-10T08:59:53;95014.88;;;10.93;100.00
57763;BME280;43592;42.524;12.052;2022-12-10T09:02:19;95017.13;;;10.95;100.00
57763;BME280;43592;42.524;12.052;2022-12-10T09:04:44;95012.94;;;10.97;100.00
57763;BME280;43592;42.524;12.052;2022-12-10T09:07:11;95015.63;;;10.97;100.00
57763;BME280;43592;42.524;12.052;2022-12-10T09:09:37;95013.34;;;10.99;100.00
57763;BME280;43592;42.524;12.052;2022-12-10T09:12:02;95012.19;;;10.93;100.00
57763;BME280;43592;42.524;12.052;2022-12-10T09:14:28;95003.00;;;10.91;100.00
57763;BME280;43592;42.524;12.052;2022-12-10T09:16:53;94996.84;;;10.87;100.00
57763;BME280;43592;42.524;12.052;2022-12-10T09:19:18;95011.00;;;10.84;100.00
57763;BME280;43592;42.524;12.052;2022-12-10T09:21:44;95006.03;;;10.82;100.00
57763;BME280;43592;42.524;12.052;2022-12-10T09:24:09;95002.59;;;10.85;100.00
57763;BME280;43592;42.524;12.052;2022-12-10T09:26:35;95006.44;;;10.88;100.00
57763;BME280;43592;42.524;12.052;2022-12-10T09:29:00;95006.03;;;10.89;100.00
57763;BME280;43592;42.524;12.052;2022-12-10T09:31:26;95002.25;;;10.90;100.00
57763;BME280;43592;42.524;12.052;2022-12-10T09:33:52;94997.66;;;10.94;100.00
57763;BME280;43592;42.524;12.052;2022-12-10T09:36:19;94997.28;;;11.03;100.00
57763;BME280;43592;42.524;12.052;2022-12-10T09:38:45;94998.03;;;11.04;100.00
57763;BME280;43592;42.524;12.052;2022-12-10T09:41:16;94998.03;;;11.04;100.00
57763;BME280;43592;42.524;12.052;2022-12-10T09:43:50;95006.06;;;11.00;100.00
57763;BME280;43592;42.524;12.052;2022-12-10T09:47:18;95002.63;;;10.96;100.00
57763;BME280;43592;42.524;12.052;2022-12-10T09:51:41;94980.81;;;10.97;100.00
57763;BME280;43592;42.524;12.052;2022-12-10T09:54:19;94971.25;;;11.04;100.00
57763;BME280;43592;42.524;12.052;2022-12-10T09:56:47;94964.00;;;11.08;100.00
57763;BME280;43592;42.524;12.052;2022-12-10T09:59:22;94970.50;;;11.07;100.00
57763;BME280;43592;42.524;12.052;2022-12-10T10:01:49;94957.88;;;11.04;100.00
57763;BME280;43592;42.524;12.052;2022-12-10T10:04:16;94955.59;;;11.02;100.00
57763;BME280;43592;42.524;12.052;2022-12-10T10:06:41;94941.47;;;11.01;100.00
57763;BME280;43592;42.524;12.052;2022-12-10T10:09:07;94928.44;;;11.04;100.00
57763;BME280;43592;42.524;12.052;2022-12-10T10:11:37;94927.66;;;11.07;100.00
57763;BME280;43592;42.524;12.052;2022-12-10T10:14:09;94922.72;;;11.05;100.00
57763;BME280;43592;42.524;12.052;2022-12-10T10:16:55;94907.03;;;11.04;100.00
57763;BME280;43592;42.524;12.052;2022-12-10T10:19:30;94902.06;;;11.06;100.00
57763;BME280;43592;42.524;12.052;2022-12-10T10:21:58;94892.88;;;11.07;100.00
57763;BME280;43592;42.524;12.052;2022-12-10T10:24:28;94888.66;;;11.06;100.00
57763;BME280;43592;42.524;12.052;2022-12-10T10:26:58;94885.25;;;11.01;100.00
57763;BME280;43592;42.524;12.052;2022-12-10T10:29:26;94882.56;;;10.98;100.00
57763;BME280;43592;42.524;12.052;2022-12-10T10:32:12;94882.56;;;10.94;100.00
57763;BME280;43592;42.524;12.052;2022-12-10T10:34:38;94876.81;;;10.89;100.00
57763;BME280;43592;42.524;12.052;2022-12-10T10:37:04;94884.47;;;10.87;100.00
57763;BME280;43592;42.524;12.052;2022-12-10T10:39:31;94876.44;;;10.83;100.00
57763;BME280;43592;42.524;12.052;2022-12-10T10:41:58;94872.63;;;10.81;100.00
57763;BME280;43592;42.524;12.052;2022-12-10T10:44:27;94865.75;;;10.79;100.00
57763;BME280;43592;42.524;12.052;2022-12-10T10:46:54;94860.41;;;10.79;100.00
57763;BME280;43592;42.524;12.052;2022-12-10T10:49:29;94856.22;;;10.78;100.00
57763;BME280;43592;42.524;12.052;2022-12-10T10:52:00;94842.44;;;10.76;100.00
57763;BME280;43592;42.524;12.052;2022-12-10T10:54:39;94839.00;;;10.76;100.00
57763;BME280;43592;42.524;12.052;2022-12-10T10:59:49;94824.09;;;10.71;100.00
57763;BME280;43592;42.524;12.052;2022-12-10T11:04:49;94809.56;;;10.69;100.00
57763;BME280;43592;42.524;12.052;2022-12-10T11:07:23;94802.69;;;10.68;100.00
57763;BME280;43592;42.524;12.052;2022-12-10T11:09:51;94812.25;;;10.69;100.00
57763;BME280;43592;42.524;12.052;2022-12-10T11:12:37;94808.81;;;10.68;100.00
57763;BME280;43592;42.524;12.052;2022-12-10T11:15:21;94802.69;;;10.71;100.00
57763;BME280;43592;42.524;12.052;2022-12-10T11:17:49;94792.75;;;10.75;100.00
57763;BME280;43592;42.524;12.052;2022-12-10T11:20:16;94796.94;;;10.80;100.00
57763;BME280;43592;42.524;12.052;2022-12-10T11:22:49;94790.44;;;10.81;100.00
57763;BME280;43592;42.524;12.052;2022-12-10T11:25:15;94793.88;;;10.78;100.00
57763;BME280;43592;42.524;12.052;2022-12-10T11:30:18;94785.88;;;10.53;100.00
57763;BME280;43592;42.524;12.052;2022-12-10T11:35:40;94775.19;;;10.35;100.00
57763;BME280;43592;42.524;12.052;2022-12-10T11:38:22;94757.63;;;10.27;100.00
57763;BME280;43592;42.524;12.052;2022-12-10T11:43:26;94755.31;;;10.18;100.00
57763;BME280;43592;42.524;12.052;2022-12-10T11:46:07;94745.38;;;10.11;100.00
57763;BME280;43592;42.524;12.052;2022-12-10T11:48:49;94738.91;;;10.05;100.00
57763;BME280;43592;42.524;12.052;2022-12-10T11:53:55;94728.56;;;9.89;100.00
57763;BME280;43592;42.524;12.052;2022-12-10T12:06:20;94715.56;;;9.74;100.00
57763;BME280;43592;42.524;12.052;2022-12-10T12:14:29;94706.41;;;9.82;100.00
57763;BME280;43592;42.524;12.052;2022-12-10T12:19:40;94710.25;;;9.92;100.00
57763;BME280;43592;42.524;12.052;2022-12-10T12:22:15;94715.59;;;9.95;100.00
57763;BME280;43592;42.524;12.052;2022-12-10T12:24:41;94722.47;;;10.03;100.00
57763;BME280;43592;42.524;12.052;2022-12-10T12:29:54;94723.59;;;10.24;100.00
57763;BME280;43592;42.524;12.052;2022-12-10T12:32:42;94730.50;;;10.36;100.00
57763;BME280;43592;42.524;12.052;2022-12-10T12:40:39;94738.53;;;10.39;100.00
57763;BME280;43592;42.524;12.052;2022-12-10T12:43:10;94724.38;;;10.35;100.00
57763;BME280;43592;42.524;12.052;2022-12-10T12:45:41;94734.31;;;10.38;100.00
57763;BME280;43592;42.524;12.052;2022-12-10T12:50:47;94728.97;;;10.49;100.00
57763;BME280;43592;42.524;12.052;2022-12-10T12:53:20;94730.09;;;10.55;100.00
57763;BME280;43592;42.524;12.052;2022-12-10T12:55:55;94725.13;;;10.61;100.00
57763;BME280;43592;42.524;12.052;2022-12-10T12:58:25;94731.25;;;10.65;100.00
57763;BME280;43592;42.524;12.052;2022-12-10T13:00:55;94726.25;;;10.67;100.00
57763;BME280;43592;42.524;12.052;2022-12-10T13:05:56;94734.28;;;10.74;100.00
57763;BME280;43592;42.524;12.052;2022-12-10T13:08:44;94740.00;;;10.76;100.00
57763;BME280;43592;42.524;12.052;2022-12-10T13:13:40;94727.78;;;10.78;100.00
57763;BME280;43592;42.524;12.052;2022-12-10T13:18:53;94718.19;;;10.85;100.00
57763;BME280;43592;42.524;12.052;2022-12-10T13:21:35;94712.84;;;10.85;100.00
57763;BME280;43592;42.524;12.052;2022-12-10T13:24:21;94712.44;;;10.86;100.00
57763;BME280;43592;42.524;12.052;2022-12-10T13:29:52;94715.16;;;10.83;100.00
57763;BME280;43592;42.524;12.052;2022-12-10T13:32:23;94717.03;;;10.86;100.00
57763;BME280;43592;42.524;12.052;2022-12-10T13:42:45;94716.22;;;11.10;100.00
57763;BME280;43592;42.524;12.052;2022-12-10T13:45:38;94708.53;;;11.12;100.00
57763;BME280;43592;42.524;12.052;2022-12-10T13:50:48;94708.53;;;11.16;100.00
57763;BME280;43592;42.524;12.052;2022-12-10T13:53:21;94715.03;;;11.15;100.00
57763;BME280;43592;42.524;12.052;2022-12-10T13:56:02;94712.75;;;11.13;100.00
57763;BME280;43592;42.524;12.052;2022-12-10T14:00:58;94713.13;;;11.12;100.00
57763;BME280;43592;42.524;12.052;2022-12-10T14:09:05;94711.63;;;11.11;100.00
57763;BME280;43592;42.524;12.052;2022-12-10T14:11:34;94718.50;;;11.08;100.00
57763;BME280;43592;42.524;12.052;2022-12-10T14:14:01;94735.72;;;11.04;100.00
57763;BME280;43592;42.524;12.052;2022-12-10T14:16:29;94729.63;;;10.99;100.00
57763;BME280;43592;42.524;12.052;2022-12-10T14:18:57;94733.47;;;10.91;100.00